Gage Information Page
Francis E. Walter Reservoir, PA

Provisional Data Subject to Revision
Francis E. Walter Reservoir, PA
Amber Threshold Elevation:1392 feet
Red Threshold Elevation:1441 feet
Date (ET) Elevation (ft) Storage (ac-ft) Inflow (cfs) Outflow (cfs)
Oct 23, 2014   6:15 am 1301.22 2118 260 281
Oct 23, 2014   5:15 am 1301.23 2119 259 286
Oct 23, 2014   4:15 am 1301.25 2121 259 286
Oct 23, 2014   3:15 am 1301.27 2123 259 286
Oct 23, 2014   2:15 am 1301.29 2125 257 286
Oct 23, 2014   1:15 am 1301.31 2127 257 286
Oct 23, 2014 12:15 am 1301.33 2129 256 286
Oct 22, 2014 11:15 pm 1301.36 2132 257 286
Oct 22, 2014 10:15 pm 1301.38 2134 257 286
Oct 22, 2014   9:15 pm 1301.40 2136 256 286
Oct 22, 2014   8:15 pm 1301.42 2139 256 286
Oct 22, 2014   7:15 pm 1301.44 2141 254 286
Oct 22, 2014   6:15 pm 1301.47 2144 256 286
Oct 22, 2014   5:15 pm 1301.49 2146 256 286
Oct 22, 2014   4:15 pm 1301.52 2149 256 286
Oct 22, 2014   3:15 pm 1301.54 2151 256 286
Oct 22, 2014   2:15 pm 1301.56 2153 256 286
Oct 22, 2014   1:15 pm 1301.59 2156 257 286
Oct 22, 2014 12:15 pm 1301.61 2158 257 286
Oct 22, 2014 11:15 am 1301.64 2162 257 286
Oct 22, 2014 10:15 am 1301.66 2164 259 286
Oct 22, 2014   9:15 am 1301.68 2166 259 286
Oct 22, 2014   8:15 am 1301.71 2169 262 286
Oct 22, 2014   7:15 am 1301.73 2171 264 286
Report Generated Oct 23, 2014 07:31 AM

NWS Web Info
USGS Web Info